createdAt,value
2019-02-20T00:02:19.454Z,101786.73
2019-02-20T00:05:00.680Z,101760.36
2019-02-20T00:07:42.261Z,101761.58
2019-02-20T00:10:23.118Z,101783.97
2019-02-20T00:13:04.398Z,101790.62
2019-02-20T00:15:46.142Z,101764.44
2019-02-20T00:18:28.095Z,101788.63
2019-02-20T00:21:10.363Z,101766.55
2019-02-20T00:23:51.373Z,101797.05
2019-02-20T00:26:32.006Z,101776.92
2019-02-20T00:29:12.742Z,101803.63
2019-02-20T00:35:07.162Z,101773.85
2019-02-20T00:37:47.881Z,101781.52
2019-02-20T00:40:29.615Z,101804.57
2019-02-20T00:43:10.591Z,101789.63
2019-02-20T00:46:14.663Z,101784.69
2019-02-20T00:49:15.415Z,101784.89
2019-02-20T00:52:17.308Z,101786.39
2019-02-20T00:54:58.018Z,101785.58
2019-02-20T00:57:38.845Z,101810.84
2019-02-20T01:00:20.173Z,101792.56
2019-02-20T01:03:02.128Z,101817.98
2019-02-20T01:05:43.150Z,101793.80
2019-02-20T01:08:25.099Z,101819.79
2019-02-20T01:11:06.420Z,101796.70
2019-02-20T01:13:46.830Z,101795.73
2019-02-20T01:16:28.559Z,101794.23
2019-02-20T01:19:10.737Z,101793.41
2019-02-20T01:21:39.099Z,101811.77
2019-02-20T01:24:20.359Z,101822.69
2019-02-20T01:27:01.821Z,101824.96
2019-02-20T01:29:43.280Z,101826.11
2019-02-20T01:32:25.079Z,101833.56
2019-02-20T01:35:05.896Z,101806.78
2019-02-20T01:37:47.528Z,101807.84
2019-02-20T01:40:28.091Z,101826.63
2019-02-20T01:43:08.846Z,101824.91
2019-02-20T01:45:49.157Z,101821.53
2019-02-20T01:51:17.299Z,101794.39
2019-02-20T01:53:59.072Z,101802.52
2019-02-20T01:56:41.230Z,101804.13
2019-02-20T01:59:22.403Z,101824.59
2019-02-20T02:02:04.825Z,101815.51
2019-02-20T02:04:45.343Z,101806.41
2019-02-20T02:07:27.576Z,101806.89
2019-02-20T02:10:08.861Z,101808.20
2019-02-20T02:12:49.925Z,101802.54
2019-02-20T02:15:31.509Z,101825.73
2019-02-20T02:18:13.054Z,101783.52
2019-02-20T02:23:39.926Z,101789.69
2019-02-20T02:26:21.022Z,101810.27
2019-02-20T02:29:05.530Z,101805.88
2019-02-20T02:31:47.175Z,101786.06
2019-02-20T02:34:28.498Z,101779.70
2019-02-20T02:37:09.779Z,101778.70
2019-02-20T02:42:35.794Z,101788.10
2019-02-20T02:45:16.169Z,101815.34
2019-02-20T02:47:57.768Z,101794.90
2019-02-20T02:50:38.757Z,101818.33
2019-02-20T02:53:30.047Z,101789.84
2019-02-20T02:56:03.555Z,101812.97
2019-02-20T02:58:45.351Z,101796.53
2019-02-20T03:01:26.853Z,101794.72
2019-02-20T03:04:08.472Z,101793.05
2019-02-20T03:06:50.219Z,101824.03
2019-02-20T03:09:32.049Z,101797.86
2019-02-20T03:12:14.112Z,101803.74
2019-02-20T03:14:56.251Z,101823.46
2019-02-20T03:17:38.273Z,101803.95
2019-02-20T03:20:19.629Z,101828.09
2019-02-20T03:22:47.560Z,101824.02
2019-02-20T03:25:29.272Z,101798.69
2019-02-20T03:28:10.715Z,101798.19
2019-02-20T03:30:52.741Z,101802.69
2019-02-20T03:33:33.310Z,101792.09
2019-02-20T03:36:15.653Z,101792.20
2019-02-20T03:38:55.699Z,101816.23
2019-02-20T03:41:36.942Z,101817.44
2019-02-20T03:44:19.219Z,101804.70
2019-02-20T03:47:01.129Z,101797.30
2019-02-20T03:49:42.768Z,101805.81
2019-02-20T03:52:24.873Z,101800.15
2019-02-20T03:55:05.393Z,101833.56
2019-02-20T03:57:46.721Z,101811.27
2019-02-20T04:00:14.665Z,101839.53
2019-02-20T04:02:55.753Z,101824.97
2019-02-20T04:10:55.729Z,101831.92
2019-02-20T04:13:45.056Z,101808.67
2019-02-20T04:16:26.765Z,101837.76
2019-02-20T04:19:06.910Z,101818.95
2019-02-20T04:21:48.812Z,101817.87
2019-02-20T04:24:29.041Z,101807.95
2019-02-20T04:27:10.428Z,101829.50
2019-02-20T04:29:50.890Z,101810.45
2019-02-20T04:32:31.508Z,101834.52
2019-02-20T04:35:13.048Z,101803.78
2019-02-20T04:37:54.148Z,101813.86
2019-02-20T04:40:34.495Z,101810.34
2019-02-20T04:43:15.278Z,101812.41
2019-02-20T04:45:58.751Z,101819.31
2019-02-20T04:48:40.853Z,101844.28
2019-02-20T04:51:21.555Z,101838.34
2019-02-20T04:54:02.437Z,101816.64
2019-02-20T04:56:44.142Z,101816.23
2019-02-20T05:02:31.317Z,101820.63
2019-02-20T05:05:19.252Z,101825.78
2019-02-20T05:08:00.418Z,101850.31
2019-02-20T05:10:41.897Z,101819.80
2019-02-20T05:13:24.330Z,101826.57
2019-02-20T05:16:06.276Z,101825.97
2019-02-20T05:21:40.152Z,101852.89
2019-02-20T05:24:24.743Z,101846.13
2019-02-20T05:27:04.601Z,101831.20
2019-02-20T05:29:45.174Z,101853.93
2019-02-20T05:32:25.944Z,101841.37
2019-02-20T05:35:06.815Z,101831.51
2019-02-20T05:37:47.705Z,101830.87
2019-02-20T05:40:29.443Z,101850.38
2019-02-20T05:43:10.744Z,101827.80
2019-02-20T05:45:51.111Z,101833.25
2019-02-20T05:48:32.364Z,101842.78
2019-02-20T05:51:13.932Z,101863.25
2019-02-20T05:53:55.233Z,101863.00
2019-02-20T05:56:36.550Z,101841.59
2019-02-20T05:59:18.458Z,101862.30
2019-02-20T06:01:59.401Z,101839.32
2019-02-20T06:04:42.182Z,101848.13
2019-02-20T06:07:22.677Z,101869.45
2019-02-20T06:10:04.435Z,101854.28
2019-02-20T06:12:45.176Z,101873.20
2019-02-20T06:15:14.367Z,101882.22
2019-02-20T06:17:55.423Z,101852.07
2019-02-20T06:20:24.495Z,101878.38
2019-02-20T06:23:05.689Z,101857.64
2019-02-20T06:25:47.072Z,101859.01
2019-02-20T06:28:28.512Z,101889.58
2019-02-20T06:31:09.856Z,101857.95
2019-02-20T06:33:51.582Z,101864.81
2019-02-20T06:36:32.556Z,101884.37
2019-02-20T06:39:12.914Z,101868.33
2019-02-20T06:41:54.237Z,101870.48
2019-02-20T06:44:34.619Z,101896.02
2019-02-20T06:47:15.312Z,101866.89
2019-02-20T06:49:43.348Z,101895.14
2019-02-20T06:52:25.382Z,101877.88
2019-02-20T06:55:07.064Z,101873.08
2019-02-20T06:57:47.970Z,101907.30
2019-02-20T07:00:28.151Z,101892.13
2019-02-20T07:03:09.204Z,101890.53
2019-02-20T07:06:11.523Z,101887.16
2019-02-20T07:09:11.348Z,101891.03
2019-02-20T07:12:31.044Z,101919.84
2019-02-20T07:15:33.053Z,101905.84
2019-02-20T07:18:37.110Z,101902.44
2019-02-20T07:24:23.133Z,101905.64
2019-02-20T07:27:24.626Z,101937.58
2019-02-20T07:30:09.426Z,101938.21
2019-02-20T07:32:51.052Z,101931.14
2019-02-20T07:35:32.352Z,101910.37
2019-02-20T07:38:13.962Z,101942.42
2019-02-20T07:40:54.628Z,101940.03
2019-02-20T07:43:36.677Z,101920.69
2019-02-20T07:46:18.212Z,101925.27
2019-02-20T07:48:58.494Z,101929.16
2019-02-20T07:54:26.264Z,101944.63
2019-02-20T07:56:54.291Z,101964.45
2019-02-20T07:59:36.054Z,101963.75
2019-02-20T08:05:04.114Z,101967.95
2019-02-20T08:07:45.759Z,101953.56
2019-02-20T08:10:27.848Z,101971.13
2019-02-20T08:13:09.572Z,101977.76
2019-02-20T08:15:50.177Z,101965.36
2019-02-20T08:21:17.465Z,101963.45
2019-02-20T08:23:59.967Z,101984.08
2019-02-20T08:26:41.687Z,101994.73
2019-02-20T08:29:23.204Z,101977.23
2019-02-20T08:32:05.461Z,101999.71
2019-02-20T08:34:47.196Z,101988.75
2019-02-20T08:37:28.144Z,102009.14
2019-02-20T08:42:40.590Z,102012.16
2019-02-20T08:45:33.723Z,102013.42
2019-02-20T08:48:14.869Z,102001.84
2019-02-20T08:53:43.436Z,102004.45
2019-02-20T08:56:25.012Z,102005.39
2019-02-20T08:59:07.128Z,102005.12
2019-02-20T09:01:48.856Z,102029.03
2019-02-20T09:04:30.100Z,102041.16
2019-02-20T09:07:11.521Z,102042.45
2019-02-20T09:09:52.164Z,102043.87
2019-02-20T09:12:33.952Z,102019.70
2019-02-20T09:15:15.425Z,102026.72
2019-02-20T09:17:56.893Z,102054.26
2019-02-20T09:20:38.478Z,102040.52
2019-02-20T09:23:20.277Z,102047.77
2019-02-20T09:26:01.508Z,102070.13
2019-02-20T09:28:42.864Z,102054.73
2019-02-20T09:31:24.136Z,102058.31
2019-02-20T09:34:04.883Z,102063.07
2019-02-20T09:36:45.749Z,102070.37
2019-02-20T09:39:33.879Z,102062.00
2019-02-20T09:42:18.117Z,102081.43
2019-02-20T09:44:59.204Z,102088.54
2019-02-20T09:47:41.024Z,102091.72
2019-02-20T09:50:23.114Z,102070.09
2019-02-20T09:53:04.038Z,102071.45
2019-02-20T09:55:51.083Z,102070.94
2019-02-20T09:58:28.201Z,102088.07
2019-02-20T10:01:08.985Z,102073.84
2019-02-20T10:06:35.574Z,102090.55
2019-02-20T10:09:16.774Z,102092.06
2019-02-20T10:11:57.397Z,102092.05
2019-02-20T10:14:40.229Z,102107.30
2019-02-20T10:17:21.036Z,102084.14
2019-02-20T10:20:02.284Z,102089.38
2019-02-20T10:25:45.464Z,102104.79
2019-02-20T10:28:26.162Z,102104.98
2019-02-20T10:31:08.250Z,102099.84
2019-02-20T10:33:49.094Z,102126.72
2019-02-20T10:36:30.187Z,102104.75
2019-02-20T10:39:12.738Z,102129.95
2019-02-20T10:41:53.620Z,102108.47
2019-02-20T10:44:34.501Z,102115.03
2019-02-20T10:47:15.025Z,102136.52
2019-02-20T10:49:55.405Z,102125.09
2019-02-20T10:52:35.931Z,102145.17
2019-02-20T10:58:03.050Z,102144.91
2019-02-20T11:00:44.421Z,102129.73
2019-02-20T11:03:27.837Z,102129.14
2019-02-20T11:06:08.922Z,102131.75
2019-02-20T11:08:51.128Z,102131.95
2019-02-20T11:11:32.380Z,102127.16
2019-02-20T11:17:16.575Z,102128.23
2019-02-20T11:19:58.419Z,102153.64
2019-02-20T11:22:39.073Z,102160.37
2019-02-20T11:27:55.004Z,102129.00
2019-02-20T11:30:35.965Z,102133.12
2019-02-20T11:33:04.051Z,102149.45
2019-02-20T11:35:45.339Z,102133.20
2019-02-20T11:38:26.091Z,102128.52
2019-02-20T11:41:06.774Z,102148.59
2019-02-20T11:43:47.220Z,102154.30
2019-02-20T11:46:27.757Z,102131.37
2019-02-20T11:48:55.860Z,102164.53
2019-02-20T11:51:36.264Z,102147.27
2019-02-20T11:54:17.169Z,102130.25
2019-02-20T11:56:58.567Z,102139.70
2019-02-20T11:59:39.264Z,102127.86
2019-02-20T12:02:19.873Z,102151.67
2019-02-20T12:05:00.564Z,102123.47
2019-02-20T12:07:41.299Z,102146.07
2019-02-20T12:10:22.891Z,102120.58
2019-02-20T12:15:52.906Z,102137.05
2019-02-20T12:18:33.807Z,102118.86
2019-02-20T12:21:15.387Z,102122.96
2019-02-20T12:23:57.246Z,102119.77
2019-02-20T12:26:38.044Z,102121.14
2019-02-20T12:29:19.351Z,102126.23
2019-02-20T12:32:01.086Z,102155.13
2019-02-20T12:34:41.744Z,102157.17
2019-02-20T12:37:25.066Z,102139.27
2019-02-20T12:40:07.091Z,102129.97
2019-02-20T12:42:48.594Z,102156.78
2019-02-20T12:48:32.099Z,102155.71
2019-02-20T12:51:14.067Z,102149.86
2019-02-20T12:53:55.107Z,102133.64
2019-02-20T12:56:43.677Z,102125.34
2019-02-20T12:59:19.868Z,102127.94
2019-02-20T13:02:00.217Z,102123.80
2019-02-20T13:04:41.168Z,102125.61
2019-02-20T13:07:21.719Z,102136.80
2019-02-20T13:10:02.443Z,102131.37
2019-02-20T13:12:42.781Z,102130.51
2019-02-20T13:15:23.553Z,102128.37
2019-02-20T13:18:04.493Z,102146.11
2019-02-20T13:20:44.801Z,102147.77
2019-02-20T13:23:25.339Z,102152.00
2019-02-20T13:26:06.226Z,102147.20
2019-02-20T13:28:46.425Z,102132.99
2019-02-20T13:31:27.326Z,102149.76
2019-02-20T13:34:08.225Z,102123.91
2019-02-20T13:36:49.336Z,102129.70
2019-02-20T13:42:18.066Z,102130.36
2019-02-20T13:44:59.119Z,102122.49
2019-02-20T13:47:42.285Z,102124.98
2019-02-20T13:50:23.377Z,102146.42
2019-02-20T13:53:04.454Z,102151.75
2019-02-20T13:55:46.664Z,102146.27
2019-02-20T13:58:28.084Z,102136.62
2019-02-20T14:03:54.884Z,102137.11
2019-02-20T14:06:36.947Z,102127.65
2019-02-20T14:09:19.442Z,102126.66
2019-02-20T14:12:01.578Z,102106.69
2019-02-20T14:14:41.930Z,102129.95
2019-02-20T14:17:26.654Z,102128.09
2019-02-20T14:20:07.325Z,102127.07
2019-02-20T14:22:48.167Z,102134.95
2019-02-20T14:25:28.880Z,102111.01
2019-02-20T14:28:09.788Z,102109.06
2019-02-20T14:30:51.693Z,102110.86
2019-02-20T14:33:32.356Z,102102.50
2019-02-20T14:36:13.120Z,102111.86
2019-02-20T14:38:53.786Z,102104.86
2019-02-20T14:41:34.281Z,102135.97
2019-02-20T14:44:17.377Z,102114.61
2019-02-20T14:46:58.223Z,102109.73
2019-02-20T14:49:39.440Z,102111.28
2019-02-20T14:52:20.566Z,102112.41
2019-02-20T14:55:00.951Z,102116.43
2019-02-20T14:57:41.134Z,102109.58
2019-02-20T15:00:21.742Z,102113.20
2019-02-20T15:03:02.237Z,102109.08
2019-02-20T15:05:44.954Z,102135.27
2019-02-20T15:08:25.824Z,102116.42
2019-02-20T15:11:07.179Z,102119.67
2019-02-20T15:13:47.801Z,102134.70
2019-02-20T15:16:28.812Z,102109.58
2019-02-20T15:19:11.807Z,102123.55
2019-02-20T15:21:52.619Z,102136.20
2019-02-20T15:24:33.135Z,102107.33
2019-02-20T15:27:13.974Z,102118.47
2019-02-20T15:29:54.146Z,102139.84
2019-02-20T15:32:34.998Z,102140.31
2019-02-20T15:35:15.642Z,102119.27
2019-02-20T15:37:56.923Z,102126.16
2019-02-20T15:40:37.366Z,102133.59
2019-02-20T15:43:18.566Z,102129.34
2019-02-20T15:45:58.932Z,102165.46
2019-02-20T15:48:40.201Z,102151.64
2019-02-20T15:51:08.419Z,102153.09
2019-02-20T15:53:49.018Z,102136.72
2019-02-20T15:59:15.408Z,102121.44
2019-02-20T16:01:56.903Z,102147.69
2019-02-20T16:04:39.880Z,102125.36
2019-02-20T16:07:21.073Z,102125.55
2019-02-20T16:10:02.679Z,102120.64
2019-02-20T16:12:44.425Z,102128.70
2019-02-20T16:15:25.038Z,102155.42
2019-02-20T16:18:06.581Z,102142.03
2019-02-20T16:20:47.620Z,102163.19
2019-02-20T16:23:28.201Z,102132.45
2019-02-20T16:26:08.576Z,102132.17
2019-02-20T16:28:48.776Z,102150.44
2019-02-20T16:31:30.569Z,102158.10
2019-02-20T16:34:11.029Z,102157.80
2019-02-20T16:36:52.236Z,102138.48
2019-02-20T16:39:32.538Z,102165.63
2019-02-20T16:42:13.287Z,102160.59
2019-02-20T16:44:54.118Z,102160.73
2019-02-20T16:47:34.736Z,102151.11
2019-02-20T16:50:15.772Z,102167.34
2019-02-20T16:55:44.556Z,102166.01
2019-02-20T16:58:25.972Z,102155.99
2019-02-20T17:01:06.711Z,102152.56
2019-02-20T17:03:34.970Z,102174.73
2019-02-20T17:06:16.396Z,102181.57
2019-02-20T17:08:56.788Z,102163.80
2019-02-20T17:11:37.766Z,102160.62
2019-02-20T17:14:19.927Z,102192.20
2019-02-20T17:17:01.105Z,102195.60
2019-02-20T17:19:44.090Z,102195.19
2019-02-20T17:22:25.778Z,102199.09
2019-02-20T17:25:07.033Z,102178.77
2019-02-20T17:27:35.132Z,102206.70
2019-02-20T17:30:17.855Z,102210.27
2019-02-20T17:32:59.591Z,102187.12
2019-02-20T17:41:49.080Z,102196.67
2019-02-20T17:54:34.587Z,102212.70
2019-02-20T17:57:17.594Z,102206.16
2019-02-20T18:09:33.994Z,102185.95
2019-02-20T18:12:05.132Z,102213.12
2019-02-20T18:37:22.506Z,102208.79
2019-02-20T18:40:04.239Z,102180.31
2019-02-20T18:42:50.172Z,102187.46
2019-02-20T18:52:02.838Z,102178.52
2019-02-20T18:54:45.211Z,102179.02
2019-02-20T18:57:27.311Z,102179.50
2019-02-20T19:00:10.676Z,102214.89
2019-02-20T19:02:53.063Z,102190.09
2019-02-20T19:05:34.084Z,102210.99
2019-02-20T19:22:01.113Z,102199.20
2019-02-20T19:25:03.869Z,102196.88
2019-02-20T19:28:09.876Z,102197.95
2019-02-20T19:31:09.781Z,102195.88
2019-02-20T19:33:55.566Z,102199.05
2019-02-20T19:40:22.638Z,102194.34
2019-02-20T19:43:27.381Z,102203.27
2019-02-20T19:46:26.624Z,102191.09
2019-02-20T19:49:33.086Z,102194.22
2019-02-20T19:52:17.488Z,102193.78
2019-02-20T19:55:44.237Z,102215.00
2019-02-20T19:58:54.561Z,102192.48
2019-02-20T20:02:04.096Z,102219.45
2019-02-20T20:05:06.061Z,102215.53
2019-02-20T20:08:07.323Z,102197.74
2019-02-20T20:11:08.461Z,102189.54
2019-02-20T20:13:54.242Z,102216.75
2019-02-20T20:16:56.006Z,102191.20
2019-02-20T20:19:46.215Z,102225.06
2019-02-20T20:26:09.498Z,102194.69
2019-02-20T20:29:11.271Z,102221.94
2019-02-20T20:32:22.850Z,102218.66
2019-02-20T20:35:03.619Z,102223.22
2019-02-20T20:37:49.672Z,102225.27
2019-02-20T20:44:27.438Z,102219.80
2019-02-20T20:47:35.482Z,102201.01
2019-02-20T20:50:37.197Z,102219.80
2019-02-20T20:56:57.621Z,102216.66
2019-02-20T20:59:54.229Z,102217.44
2019-02-20T21:02:37.444Z,102189.86
2019-02-20T21:05:37.668Z,102221.19
2019-02-20T21:08:25.258Z,102195.79
2019-02-20T21:11:26.391Z,102215.41
2019-02-20T21:14:27.771Z,102199.25
2019-02-20T21:17:16.421Z,102193.73
2019-02-20T21:20:23.451Z,102203.36
2019-02-20T21:23:27.649Z,102230.02
2019-02-20T21:26:28.841Z,102200.29
2019-02-20T21:29:28.962Z,102230.02
2019-02-20T21:32:22.379Z,102206.08
2019-02-20T21:35:25.548Z,102198.48
2019-02-20T21:41:52.681Z,102210.31
2019-02-20T21:44:46.554Z,102228.94
2019-02-20T21:47:49.565Z,102201.02
2019-02-20T21:50:41.885Z,102227.66
2019-02-20T21:57:08.544Z,102227.58
2019-02-20T22:00:09.830Z,102210.14
2019-02-20T22:03:14.279Z,102233.27
2019-02-20T22:06:22.580Z,102221.55
2019-02-20T22:09:24.411Z,102243.59
2019-02-20T22:12:26.295Z,102228.69
2019-02-20T22:15:28.677Z,102226.36
2019-02-20T22:18:16.186Z,102253.77
2019-02-20T22:21:16.612Z,102222.75
2019-02-20T22:24:09.852Z,102251.67
2019-02-20T22:27:36.347Z,102245.89
2019-02-20T22:30:37.172Z,102219.77
2019-02-20T22:33:27.640Z,102221.19
2019-02-20T22:36:27.791Z,102222.86
2019-02-20T22:39:08.712Z,102241.04
2019-02-20T22:42:11.000Z,102240.98
2019-02-20T22:45:12.713Z,102215.75
2019-02-20T22:48:19.386Z,102214.53
2019-02-20T22:51:26.598Z,102233.94
2019-02-20T22:54:28.517Z,102238.08
2019-02-20T22:57:38.901Z,102237.11
2019-02-20T23:00:41.594Z,102238.09
2019-02-20T23:03:35.377Z,102205.33
2019-02-20T23:06:15.839Z,102228.14
2019-02-20T23:08:57.058Z,102229.66
2019-02-20T23:11:58.578Z,102202.53
2019-02-20T23:14:52.330Z,102201.72
2019-02-20T23:17:41.089Z,102206.47
2019-02-20T23:20:21.989Z,102233.66
2019-02-20T23:23:02.869Z,102220.69
2019-02-20T23:25:43.541Z,102207.94
2019-02-20T23:28:11.599Z,102229.06
2019-02-20T23:30:52.475Z,102207.37
2019-02-20T23:33:32.943Z,102238.67
2019-02-20T23:36:13.442Z,102213.74
2019-02-20T23:38:54.279Z,102219.16
2019-02-20T23:41:35.495Z,102244.91
2019-02-20T23:44:16.194Z,102222.57
2019-02-20T23:49:24.293Z,102243.55
2019-02-20T23:52:05.430Z,102221.31
2019-02-20T23:54:48.201Z,102228.39
2019-02-20T23:57:31.083Z,102238.16
